岡山グライダークラブ活動状況掲示板

岡山グライダークラブ
岡山市浦安南町639-1 岡南飛行場
 使用機:シャイベ式 SF25C型 ファルケ   JA2330
      ヴァレンティン式17E型 タイフーン  JA2342
 練習日:毎日曜日  クラブルーム:電話 086-265-1810
この掲示板は岡山グライダークラブの活動状況をお知らせする掲示板です。
!!!この掲示板は投稿規制をしています。!!!
クラブ関連各種情報は 岡山グライダークラブクラブルーム      を       .
  ブリーフイング情報は  岡山グライダークラブブリーフィングルーム  をご覧下さい。 .
※写真はクリックすると拡大して見ることが出来ます。
岡南飛行場へのアクセス等は 岡南飛行場管理事務所 をご覧ください。
クラブの ホームページ ができました。

!!!お待たせしました。新型コロナ感染症の感染が下火になったことから見学者等の受入を再開します。!!!
  注)なお、見学等の際には一般的な感染対策(マスク、ソーシャルディスタンス、黙食等)を順守してください。

 
10月02日
by OGC at 2022/10/2(日) 18:44:12 No.20221002184114  削除コメント
640 x 480 x 81,153バイト
No.1

10月02日
本日の参加者
  会員      12名
  その他     02名


@本日の様子






METAR
RJOB 020000Z VRB02KT 9999 FEW025 23/15 Q1021
RJOT 020000Z 05006KT 010V080 CAVOK 23/19 Q1021
RJOA 020000Z VRB01KT CAVOK 22/17 Q1022
TAF
RJOB 012307Z 0200/0306 10004KT 9999 FEW030
     BECMG 0201/0203 23005KT
     BECMG 0209/0211 02004KT
RJOT 012307Z 0200/0306 06004KT 9999 FEW030
RJOA 012306Z 0200/0306 15004KT 9999 FEW030
     BECMG 0212/0215 35005KT
     BECMG 0300/0303 15004KT

本日は晴れ、風は穏やかで、上昇気流もなく、基礎訓練日和でした。
訓練生は実地試験に向け、科目の練習に出たり、ソロチェックを行ったりしていました。
一方、ライセンサーは操縦教育証明の訓練やTGL訓練を実施していました。
また、コロナも収まりつつあることから、今月から見学のみ制限解除し、
来月から通常通りに制限を解除する予定です。

解散    17:00

1番機  10:25離陸 撤収機  16:20着陸 

SF25C JA2330 ファルケ     09Flt.3h05min  
17E   JA2342 タイフーン    00Flt.0h00min
合計                    09Flt.3h05min

    << 戻る || ホームページ || 最新の掲示板へ